createdAt,value
2022-10-23T00:01:40.557Z,2.28
2022-10-23T00:04:12.688Z,2.30
2022-10-23T00:06:40.278Z,1.73
2022-10-23T00:09:09.335Z,3.58
2022-10-23T00:11:37.029Z,2.95
2022-10-23T00:14:06.689Z,2.15
2022-10-23T00:16:33.877Z,3.08
2022-10-23T00:19:00.838Z,1.65
2022-10-23T00:21:28.020Z,1.95
2022-10-23T00:23:54.937Z,1.77
2022-10-23T00:26:21.860Z,2.85
2022-10-23T00:28:51.745Z,1.25
2022-10-23T00:31:20.798Z,1.73
2022-10-23T00:33:47.830Z,2.42
2022-10-23T00:36:16.699Z,1.13
2022-10-23T00:38:44.055Z,3.22
2022-10-23T00:41:16.424Z,1.63
2022-10-23T00:44:19.126Z,6.05
2022-10-23T00:46:46.557Z,1.15
2022-10-23T00:49:13.830Z,1.10
2022-10-23T00:51:51.994Z,3.40
2022-10-23T00:54:24.671Z,2.72
2022-10-23T00:56:54.947Z,1.08
2022-10-23T00:59:22.009Z,2.13
2022-10-23T01:01:49.278Z,1.58
2022-10-23T01:04:16.763Z,1.33
2022-10-23T01:07:05.233Z,2.42
2022-10-23T01:09:58.293Z,2.25
2022-10-23T01:13:11.473Z,2.50
2022-10-23T01:15:48.657Z,1.25
2022-10-23T01:18:24.707Z,1.17
2022-10-23T01:21:00.780Z,1.50
2022-10-23T01:23:52.128Z,1.70
2022-10-23T01:29:24.276Z,2.40
2022-10-23T01:32:23.486Z,0.80
2022-10-23T01:35:12.144Z,2.33
2022-10-23T01:37:50.140Z,1.60
2022-10-23T01:40:33.164Z,2.08
2022-10-23T01:43:05.102Z,1.67
2022-10-23T01:45:40.368Z,2.50
2022-10-23T01:48:11.090Z,1.17
2022-10-23T01:50:40.421Z,2.67
2022-10-23T01:53:07.444Z,1.15
2022-10-23T01:55:37.337Z,1.45
2022-10-23T01:58:08.677Z,1.98
2022-10-23T02:00:39.428Z,1.50
2022-10-23T02:03:08.884Z,1.35
2022-10-23T02:05:36.501Z,3.63
2022-10-23T02:08:03.512Z,2.13
2022-10-23T02:10:55.301Z,2.15
2022-10-23T02:13:33.667Z,1.42
2022-10-23T02:16:12.628Z,2.25
2022-10-23T02:18:54.565Z,2.20
2022-10-23T02:21:33.934Z,2.47
2022-10-23T02:24:09.879Z,1.38
2022-10-23T02:26:40.340Z,3.25
2022-10-23T02:29:21.199Z,1.58
2022-10-23T02:31:48.000Z,1.75
2022-10-23T02:34:14.831Z,1.42
2022-10-23T02:36:41.838Z,1.85
2022-10-23T02:39:09.513Z,1.38
2022-10-23T02:41:54.154Z,2.08
2022-10-23T02:44:38.075Z,1.02
2022-10-23T02:47:11.095Z,1.98
2022-10-23T02:49:59.654Z,1.77
2022-10-23T02:52:30.076Z,1.63
2022-10-23T02:55:23.251Z,1.33
2022-10-23T02:58:10.702Z,1.98
2022-10-23T03:00:43.086Z,2.33
2022-10-23T03:03:17.491Z,3.03
2022-10-23T03:05:47.638Z,2.03
2022-10-23T03:08:15.541Z,2.00
2022-10-23T03:10:43.186Z,2.00
2022-10-23T03:13:11.482Z,2.63
2022-10-23T03:15:38.309Z,1.50
2022-10-23T03:18:05.464Z,1.02
2022-10-23T03:20:32.252Z,1.27
2022-10-23T03:22:59.062Z,1.60
2022-10-23T03:25:25.903Z,2.80
2022-10-23T03:27:52.709Z,2.00
2022-10-23T03:30:20.069Z,2.38
2022-10-23T03:32:46.870Z,1.48
2022-10-23T03:35:13.757Z,2.33
2022-10-23T03:37:40.759Z,1.35
2022-10-23T03:40:08.467Z,2.15
2022-10-23T03:42:35.319Z,1.63
2022-10-23T03:45:02.344Z,1.83
2022-10-23T03:47:30.703Z,1.40
2022-10-23T03:49:57.753Z,1.60
2022-10-23T03:55:11.923Z,1.45
2022-10-23T03:57:39.085Z,3.13
2022-10-23T04:00:07.150Z,1.30
2022-10-23T04:02:34.006Z,2.40
2022-10-23T04:05:00.909Z,3.65
2022-10-23T04:07:27.740Z,3.05
2022-10-23T04:09:54.606Z,1.25
2022-10-23T04:12:21.450Z,2.60
2022-10-23T04:14:48.268Z,1.15
2022-10-23T04:17:15.247Z,2.63
2022-10-23T04:19:42.106Z,2.55
2022-10-23T04:22:08.897Z,3.60
2022-10-23T04:24:35.818Z,1.92
2022-10-23T04:27:02.594Z,1.25
2022-10-23T04:29:31.858Z,2.05
2022-10-23T04:31:59.053Z,2.35
2022-10-23T04:34:25.843Z,1.30
2022-10-23T04:36:52.623Z,1.88
2022-10-23T04:39:19.580Z,2.58
2022-10-23T04:41:46.552Z,2.35
2022-10-23T04:44:13.475Z,2.13
2022-10-23T04:46:40.279Z,2.08
2022-10-23T04:49:07.126Z,0.93
2022-10-23T04:51:33.904Z,3.35
2022-10-23T04:54:00.733Z,1.00
2022-10-23T04:56:27.567Z,1.75
2022-10-23T04:58:55.221Z,1.60
2022-10-23T05:01:22.146Z,2.42
2022-10-23T05:03:49.048Z,1.38
2022-10-23T05:06:15.878Z,3.00
2022-10-23T05:08:42.707Z,1.40
2022-10-23T05:11:09.480Z,2.28
2022-10-23T05:13:36.404Z,1.73
2022-10-23T05:16:03.478Z,1.77
2022-10-23T05:18:35.946Z,1.52
2022-10-23T05:21:28.094Z,1.67
2022-10-23T05:23:55.083Z,1.92
2022-10-23T05:26:22.675Z,1.42
2022-10-23T05:28:49.644Z,2.72
2022-10-23T05:31:17.891Z,1.88
2022-10-23T05:33:44.848Z,1.63
2022-10-23T05:36:14.297Z,1.75
2022-10-23T05:38:41.455Z,2.00
2022-10-23T05:41:08.245Z,1.13
2022-10-23T05:43:35.083Z,2.63
2022-10-23T05:46:06.329Z,2.55
2022-10-23T05:48:35.334Z,1.48
2022-10-23T05:51:04.680Z,2.17
2022-10-23T05:53:31.471Z,2.33
2022-10-23T05:56:07.264Z,2.22
2022-10-23T05:58:34.706Z,2.15
2022-10-23T06:01:06.922Z,1.38
2022-10-23T06:03:33.911Z,2.70
2022-10-23T06:06:00.781Z,1.40
2022-10-23T06:08:27.764Z,2.35
2022-10-23T06:10:54.608Z,1.63
2022-10-23T06:13:21.668Z,1.13
2022-10-23T06:15:48.804Z,2.72
2022-10-23T06:18:16.242Z,10.05
2022-10-23T06:20:43.093Z,2.33
2022-10-23T06:23:09.932Z,2.38
2022-10-23T06:25:36.857Z,3.15
2022-10-23T06:28:03.681Z,1.23
2022-10-23T06:30:30.614Z,1.88
2022-10-23T06:32:57.538Z,1.23
2022-10-23T06:35:24.425Z,2.33
2022-10-23T06:37:51.262Z,1.17
2022-10-23T06:40:18.198Z,3.08
2022-10-23T06:42:45.194Z,2.10
2022-10-23T06:45:12.357Z,2.70
2022-10-23T06:47:39.208Z,1.27
2022-10-23T06:50:06.312Z,0.98
2022-10-23T06:52:46.574Z,1.38
2022-10-23T06:55:14.118Z,2.97
2022-10-23T06:57:41.302Z,2.58
2022-10-23T07:00:09.022Z,2.50
2022-10-23T07:02:36.717Z,1.15
2022-10-23T07:05:03.721Z,1.73
2022-10-23T07:07:31.067Z,1.05
2022-10-23T07:09:58.130Z,1.45
2022-10-23T07:12:25.045Z,3.25
2022-10-23T07:14:51.887Z,1.27
2022-10-23T07:17:18.732Z,7.05
2022-10-23T07:19:46.938Z,2.58
2022-10-23T07:22:15.978Z,3.58
2022-10-23T07:24:43.341Z,2.40
2022-10-23T07:27:10.425Z,5.38
2022-10-23T07:29:37.649Z,1.85
2022-10-23T07:32:04.925Z,3.58
2022-10-23T07:34:32.413Z,5.50
2022-10-23T07:36:59.367Z,2.25
2022-10-23T07:39:26.375Z,2.35
2022-10-23T07:41:53.333Z,1.88
2022-10-23T07:44:22.029Z,3.95
2022-10-23T07:46:51.283Z,1.27
2022-10-23T07:49:18.241Z,2.50
2022-10-23T07:51:50.426Z,3.15
2022-10-23T07:54:18.709Z,1.65
2022-10-23T07:56:45.837Z,3.00
2022-10-23T07:59:13.738Z,1.45
2022-10-23T08:01:42.909Z,3.08
2022-10-23T08:04:11.062Z,4.28
2022-10-23T08:06:38.601Z,1.25
2022-10-23T08:09:06.798Z,1.65
2022-10-23T08:11:35.998Z,3.17
2022-10-23T08:14:05.079Z,1.77
2022-10-23T08:16:37.933Z,8.70
2022-10-23T08:19:07.007Z,3.08
2022-10-23T08:21:34.483Z,6.13
2022-10-23T08:24:01.651Z,4.13
2022-10-23T08:26:31.871Z,3.30
2022-10-23T08:29:00.901Z,2.65
2022-10-23T08:31:28.198Z,4.72
2022-10-23T08:33:55.220Z,2.17
2022-10-23T08:36:24.876Z,3.03
2022-10-23T08:38:55.639Z,4.97
2022-10-23T08:41:38.742Z,5.20
2022-10-23T08:44:19.609Z,3.92
2022-10-23T08:47:17.326Z,4.95
2022-10-23T08:49:52.248Z,1.77
2022-10-23T08:52:42.322Z,2.22
2022-10-23T08:55:44.663Z,2.30
2022-10-23T08:58:46.922Z,2.72
2022-10-23T09:01:24.594Z,2.85
2022-10-23T09:03:51.670Z,3.75
2022-10-23T09:06:41.390Z,2.50
2022-10-23T09:09:17.295Z,3.22
2022-10-23T09:12:13.774Z,4.15
2022-10-23T09:14:52.761Z,7.82
2022-10-23T09:17:31.784Z,3.28
2022-10-23T09:20:01.909Z,4.18
2022-10-23T09:22:29.555Z,4.68
2022-10-23T09:24:56.887Z,6.00
2022-10-23T09:27:23.994Z,8.95
2022-10-23T09:29:55.025Z,7.80
2022-10-23T09:32:34.664Z,5.70
2022-10-23T09:35:01.844Z,3.95
2022-10-23T09:37:32.308Z,2.90
2022-10-23T09:40:12.158Z,4.13
2022-10-23T09:42:50.276Z,7.30
2022-10-23T09:45:32.324Z,7.72
2022-10-23T09:48:07.199Z,8.65
2022-10-23T09:50:34.090Z,8.32
2022-10-23T09:53:01.039Z,7.57
2022-10-23T09:55:28.429Z,5.45
2022-10-23T09:57:55.797Z,4.03
2022-10-23T10:00:25.388Z,6.18
2022-10-23T10:03:20.705Z,5.53
2022-10-23T10:05:56.231Z,7.57
2022-10-23T10:08:44.708Z,4.30
2022-10-23T10:11:24.655Z,6.53
2022-10-23T10:14:01.037Z,6.30
2022-10-23T10:19:30.761Z,6.63
2022-10-23T10:22:27.536Z,9.60
2022-10-23T10:25:03.463Z,8.50
2022-10-23T10:27:48.844Z,7.22
2022-10-23T10:30:21.361Z,8.88
2022-10-23T10:33:15.038Z,6.43
2022-10-23T10:35:55.208Z,7.45
2022-10-23T10:38:47.495Z,7.35
2022-10-23T10:41:42.118Z,4.28
2022-10-23T10:44:18.214Z,4.85
2022-10-23T10:47:06.050Z,3.28
2022-10-23T10:49:57.596Z,4.85
2022-10-23T10:52:49.487Z,3.55
2022-10-23T10:55:30.426Z,2.78
2022-10-23T10:58:06.111Z,4.25
2022-10-23T11:00:34.408Z,4.25
2022-10-23T11:03:13.068Z,3.58
2022-10-23T11:05:46.954Z,4.63
2022-10-23T11:08:16.621Z,5.00
2022-10-23T11:10:46.862Z,5.05
2022-10-23T11:13:36.690Z,6.35
2022-10-23T11:16:12.023Z,2.22
2022-10-23T11:18:42.435Z,4.22
2022-10-23T11:21:26.205Z,2.63
2022-10-23T11:24:46.699Z,4.70
2022-10-23T11:27:19.114Z,3.80
2022-10-23T11:29:49.771Z,3.00
2022-10-23T11:32:47.717Z,3.95
2022-10-23T11:35:37.467Z,3.50
2022-10-23T11:38:13.480Z,2.60
2022-10-23T11:41:18.177Z,4.60
2022-10-23T11:44:03.863Z,4.85
2022-10-23T11:46:35.514Z,4.07
2022-10-23T11:49:06.348Z,3.78
2022-10-23T11:51:37.361Z,8.30
2022-10-23T11:54:16.453Z,28.02
2022-10-23T11:57:10.322Z,21.13
2022-10-23T11:59:49.891Z,19.85
2022-10-23T12:02:33.961Z,11.30
2022-10-23T12:05:23.663Z,13.90
2022-10-23T12:07:56.214Z,13.90
2022-10-23T12:10:56.130Z,16.48
2022-10-23T12:13:38.053Z,12.15
2022-10-23T12:16:07.970Z,17.23
2022-10-23T12:18:53.348Z,11.43
2022-10-23T12:21:28.918Z,15.98
2022-10-23T12:24:08.741Z,9.82
2022-10-23T12:26:38.654Z,12.20
2022-10-23T12:29:24.380Z,12.48
2022-10-23T12:32:16.843Z,12.48
2022-10-23T12:35:05.788Z,11.98
2022-10-23T12:37:41.517Z,14.93
2022-10-23T12:40:11.064Z,9.65
2022-10-23T12:42:38.956Z,9.63
2022-10-23T12:45:06.130Z,11.43
2022-10-23T12:47:33.353Z,10.57
2022-10-23T12:50:00.506Z,12.38
2022-10-23T12:52:27.616Z,13.30
2022-10-23T12:54:54.674Z,8.77
2022-10-23T12:57:27.650Z,13.57
2022-10-23T13:00:02.705Z,8.75
2022-10-23T13:02:32.276Z,6.57
2022-10-23T13:05:02.351Z,8.07
2022-10-23T13:07:32.286Z,8.07
2022-10-23T13:10:00.337Z,8.70
2022-10-23T13:12:33.758Z,6.25
2022-10-23T13:15:21.022Z,7.18
2022-10-23T13:18:01.343Z,8.02
2022-10-23T13:20:31.757Z,7.70
2022-10-23T13:23:12.707Z,7.30
2022-10-23T13:25:40.510Z,9.98
2022-10-23T13:28:23.154Z,6.97
2022-10-23T13:31:05.658Z,6.65
2022-10-23T13:33:42.589Z,6.78
2022-10-23T13:36:09.456Z,8.55
2022-10-23T13:38:38.263Z,8.35
2022-10-23T13:41:07.313Z,9.95
2022-10-23T13:43:48.956Z,9.48
2022-10-23T13:46:18.324Z,14.52
2022-10-23T13:48:46.469Z,8.60
2022-10-23T13:51:16.929Z,9.90
2022-10-23T13:53:44.019Z,9.95
2022-10-23T13:56:15.567Z,11.45
2022-10-23T13:58:42.866Z,18.60
2022-10-23T14:01:27.091Z,11.45
2022-10-23T14:03:55.367Z,11.27
2022-10-23T14:06:22.317Z,10.32
2022-10-23T14:08:49.525Z,12.23
2022-10-23T14:11:18.834Z,17.98
2022-10-23T14:13:46.447Z,10.65
2022-10-23T14:16:15.985Z,12.15
2022-10-23T14:18:43.043Z,11.45
2022-10-23T14:21:12.780Z,12.27
2022-10-23T14:23:40.229Z,11.48
2022-10-23T14:26:13.210Z,10.27
2022-10-23T14:28:40.235Z,16.98
2022-10-23T14:31:26.042Z,14.80
2022-10-23T14:33:56.371Z,13.45
2022-10-23T14:36:24.372Z,9.13
2022-10-23T14:38:55.837Z,12.18
2022-10-23T14:41:23.146Z,11.05
2022-10-23T14:43:50.193Z,22.30
2022-10-23T14:46:19.961Z,9.27
2022-10-23T14:48:49.445Z,13.20
2022-10-23T14:51:25.869Z,12.77
2022-10-23T14:53:59.722Z,9.23
2022-10-23T14:56:26.981Z,8.48
2022-10-23T14:58:54.385Z,12.30
2022-10-23T15:01:21.536Z,17.35
2022-10-23T15:03:54.965Z,11.75
2022-10-23T15:06:22.064Z,8.18
2022-10-23T15:08:54.818Z,7.20
2022-10-23T15:11:22.457Z,19.65
2022-10-23T15:13:50.313Z,7.45
2022-10-23T15:16:17.539Z,9.52
2022-10-23T15:18:44.715Z,7.43
2022-10-23T15:21:11.635Z,5.65
2022-10-23T15:23:42.634Z,9.98
2022-10-23T15:26:20.482Z,5.50
2022-10-23T15:28:58.759Z,5.60
2022-10-23T15:31:37.924Z,8.10
2022-10-23T15:34:06.423Z,10.45
2022-10-23T15:36:34.441Z,7.28
2022-10-23T15:39:01.586Z,8.32
2022-10-23T15:41:33.663Z,6.53
2022-10-23T15:44:02.661Z,3.90
2022-10-23T15:46:30.023Z,4.55
2022-10-23T15:48:57.369Z,5.38
2022-10-23T15:51:24.657Z,4.28
2022-10-23T15:53:51.496Z,5.72
2022-10-23T15:56:18.449Z,4.68
2022-10-23T15:58:45.369Z,4.20
2022-10-23T16:01:12.876Z,6.25
2022-10-23T16:03:40.038Z,7.95
2022-10-23T16:06:09.938Z,6.00
2022-10-23T16:08:37.907Z,4.88
2022-10-23T16:11:13.076Z,4.93
2022-10-23T16:13:40.040Z,4.40
2022-10-23T16:16:07.594Z,43.47
2022-10-23T16:18:34.617Z,164.05
2022-10-23T16:21:01.637Z,128.50
2022-10-23T16:23:28.623Z,104.55
2022-10-23T16:25:55.788Z,81.13
2022-10-23T16:28:22.698Z,79.95
2022-10-23T16:30:49.699Z,69.40
2022-10-23T16:33:16.638Z,63.80
2022-10-23T16:35:44.025Z,58.80
2022-10-23T16:38:11.380Z,54.80
2022-10-23T16:40:38.455Z,54.40
2022-10-23T16:43:05.838Z,42.50
2022-10-23T16:45:37.080Z,40.67
2022-10-23T16:48:05.034Z,35.30
2022-10-23T16:50:32.244Z,31.27
2022-10-23T16:52:59.753Z,31.50
2022-10-23T16:55:26.856Z,28.17
2022-10-23T16:57:53.865Z,23.88
2022-10-23T17:00:22.917Z,24.90
2022-10-23T17:02:50.457Z,21.38
2022-10-23T17:05:17.517Z,21.25
2022-10-23T17:07:44.791Z,18.35
2022-10-23T17:10:11.864Z,17.85
2022-10-23T17:12:38.896Z,18.15
2022-10-23T17:15:06.447Z,13.05
2022-10-23T17:17:33.422Z,13.23
2022-10-23T17:20:00.579Z,10.02
2022-10-23T17:22:28.055Z,11.30
2022-10-23T17:24:57.009Z,11.68
2022-10-23T17:27:23.957Z,11.00
2022-10-23T17:29:51.212Z,13.10
2022-10-23T17:32:18.340Z,21.83
2022-10-23T17:34:46.741Z,15.38
2022-10-23T17:37:14.707Z,18.95
2022-10-23T17:39:42.218Z,23.55
2022-10-23T17:42:09.544Z,20.95
2022-10-23T17:44:37.675Z,32.38
2022-10-23T17:47:04.828Z,18.85
2022-10-23T17:49:31.791Z,23.60
2022-10-23T17:51:58.842Z,32.45
2022-10-23T17:54:27.957Z,42.65
2022-10-23T17:56:55.011Z,28.10
2022-10-23T17:59:22.191Z,41.15
2022-10-23T18:01:52.975Z,35.83
2022-10-23T18:04:22.696Z,41.33
2022-10-23T18:06:52.944Z,80.90
2022-10-23T18:09:21.857Z,58.95
2022-10-23T18:11:50.097Z,83.57
2022-10-23T18:14:19.645Z,79.95
2022-10-23T18:16:47.152Z,93.57
2022-10-23T18:19:18.448Z,75.18
2022-10-23T18:21:46.021Z,75.05
2022-10-23T18:24:13.082Z,74.68
2022-10-23T18:26:41.744Z,71.60
2022-10-23T18:29:11.272Z,70.50
2022-10-23T18:31:40.712Z,87.35
2022-10-23T18:34:22.094Z,84.03
2022-10-23T18:36:51.588Z,71.22
2022-10-23T18:39:22.955Z,64.97
2022-10-23T18:41:53.972Z,69.78
2022-10-23T18:46:49.727Z,53.22
2022-10-23T18:49:19.242Z,49.72
2022-10-23T18:51:46.646Z,46.17
2022-10-23T18:54:15.970Z,38.25
2022-10-23T18:56:43.349Z,38.85
2022-10-23T18:59:16.958Z,35.85
2022-10-23T19:01:44.433Z,29.23
2022-10-23T19:04:14.567Z,25.85
2022-10-23T19:06:42.092Z,20.90
2022-10-23T19:09:11.262Z,20.75
2022-10-23T19:11:41.451Z,20.75
2022-10-23T19:14:08.789Z,18.50
2022-10-23T19:16:41.341Z,16.67
2022-10-23T19:19:42.058Z,13.23
2022-10-23T19:22:12.518Z,11.48
2022-10-23T19:24:47.712Z,7.65
2022-10-23T19:27:15.835Z,6.47
2022-10-23T19:29:47.705Z,6.53
2022-10-23T19:32:18.484Z,7.03
2022-10-23T19:34:45.970Z,5.88
2022-10-23T19:40:02.899Z,3.83
2022-10-23T19:42:29.983Z,3.20
2022-10-23T19:44:57.097Z,4.22
2022-10-23T19:47:24.302Z,4.38
2022-10-23T19:49:52.366Z,3.30
2022-10-23T19:52:20.224Z,3.55
2022-10-23T19:54:47.585Z,2.42
2022-10-23T19:57:17.079Z,3.92
2022-10-23T19:59:51.226Z,2.10
2022-10-23T20:02:20.785Z,3.20
2022-10-23T20:04:48.409Z,2.22
2022-10-23T20:07:16.311Z,5.15
2022-10-23T20:09:46.443Z,2.08
2022-10-23T20:12:13.786Z,2.95
2022-10-23T20:14:41.326Z,3.90
2022-10-23T20:17:11.821Z,2.17
2022-10-23T20:19:39.300Z,3.13
2022-10-23T20:22:09.077Z,1.80
2022-10-23T20:24:37.911Z,2.33
2022-10-23T20:27:06.391Z,1.33
2022-10-23T20:29:33.640Z,2.38
2022-10-23T20:32:01.475Z,2.63
2022-10-23T20:34:28.589Z,3.05
2022-10-23T20:36:57.918Z,2.83
2022-10-23T20:39:26.969Z,2.03
2022-10-23T20:41:56.090Z,1.23
2022-10-23T20:44:24.157Z,2.40
2022-10-23T20:46:52.010Z,1.52
2022-10-23T20:49:19.664Z,1.58
2022-10-23T20:51:55.918Z,1.90
2022-10-23T20:54:26.466Z,1.55
2022-10-23T20:56:54.304Z,3.75
2022-10-23T20:59:21.458Z,4.15
2022-10-23T21:01:51.763Z,2.80
2022-10-23T21:04:21.477Z,4.95
2022-10-23T21:07:08.855Z,3.38
2022-10-23T21:09:38.901Z,2.88
2022-10-23T21:12:07.143Z,1.33
2022-10-23T21:14:34.885Z,2.22
2022-10-23T21:17:02.162Z,3.78
2022-10-23T21:19:29.296Z,2.08
2022-10-23T21:21:56.534Z,1.83
2022-10-23T21:24:24.509Z,1.40
2022-10-23T21:26:51.520Z,1.75
2022-10-23T21:29:19.762Z,1.40
2022-10-23T21:31:55.862Z,2.33
2022-10-23T21:34:24.384Z,2.40
2022-10-23T21:39:38.926Z,2.22
2022-10-23T21:42:06.507Z,2.88
2022-10-23T21:44:33.804Z,2.40
2022-10-23T21:47:01.387Z,3.10
2022-10-23T21:49:28.622Z,1.23
2022-10-23T21:51:55.551Z,1.75
2022-10-23T21:54:22.871Z,3.65
2022-10-23T21:56:52.163Z,2.10
2022-10-23T21:59:23.002Z,2.22
2022-10-23T22:01:50.616Z,2.25
2022-10-23T22:04:19.378Z,2.38
2022-10-23T22:06:48.949Z,2.47
2022-10-23T22:09:19.801Z,1.70
2022-10-23T22:14:14.339Z,1.42
2022-10-23T22:16:42.358Z,3.42
2022-10-23T22:19:12.102Z,2.05
2022-10-23T22:21:41.285Z,2.83
2022-10-23T22:24:09.980Z,3.10
2022-10-23T22:26:43.211Z,3.08
2022-10-23T22:29:13.734Z,1.58
2022-10-23T22:31:45.585Z,3.22
2022-10-23T22:34:27.006Z,2.05
2022-10-23T22:39:41.783Z,2.05
2022-10-23T22:42:08.988Z,2.75
2022-10-23T22:44:35.929Z,1.73
2022-10-23T22:47:02.846Z,1.60
2022-10-23T22:49:29.984Z,2.00
2022-10-23T22:51:57.451Z,1.90
2022-10-23T22:54:24.397Z,1.95
2022-10-23T22:56:51.252Z,1.65
2022-10-23T22:59:18.841Z,1.67
2022-10-23T23:01:47.939Z,2.83
2022-10-23T23:07:06.867Z,3.08
2022-10-23T23:09:36.887Z,2.15
2022-10-23T23:12:03.961Z,2.83
2022-10-23T23:14:30.825Z,1.40
2022-10-23T23:16:57.838Z,1.95
2022-10-23T23:19:26.835Z,5.30
2022-10-23T23:21:57.957Z,4.15
2022-10-23T23:26:52.616Z,2.53
2022-10-23T23:29:19.701Z,1.67
2022-10-23T23:31:46.744Z,4.20
2022-10-23T23:34:13.620Z,2.63
2022-10-23T23:36:41.391Z,2.63
2022-10-23T23:39:08.397Z,2.42
2022-10-23T23:41:35.333Z,2.88
2022-10-23T23:44:02.211Z,3.50
2022-10-23T23:46:29.156Z,3.97
2022-10-23T23:48:56.095Z,3.95
2022-10-23T23:51:25.119Z,1.73
2022-10-23T23:53:52.649Z,3.35
2022-10-23T23:56:20.507Z,4.05
2022-10-23T23:58:47.378Z,4.10
